sensor_id;sensor_type;location;lat;lon;timestamp;pressure;altitude;pressure_sealevel;temperature;humidity
61014;BME280;46899;47.542;19.082;2022-12-18T00:02:44;101890.22;;;-2.99;100.00
61014;BME280;46899;47.542;19.082;2022-12-18T00:05:50;101895.31;;;-2.99;100.00
61014;BME280;46899;47.542;19.082;2022-12-18T00:08:53;101900.41;;;-2.99;100.00
61014;BME280;46899;47.542;19.082;2022-12-18T00:11:58;101909.50;;;-3.04;100.00
61014;BME280;46899;47.542;19.082;2022-12-18T00:15:00;101920.72;;;-3.00;100.00
61014;BME280;46899;47.542;19.082;2022-12-18T00:18:03;101930.69;;;-3.05;100.00
61014;BME280;46899;47.542;19.082;2022-12-18T00:21:07;101940.47;;;-3.14;100.00
61014;BME280;46899;47.542;19.082;2022-12-18T00:24:11;101949.81;;;-3.13;100.00
61014;BME280;46899;47.542;19.082;2022-12-18T00:27:13;101956.47;;;-3.16;100.00
61014;BME280;46899;47.542;19.082;2022-12-18T00:30:16;101969.75;;;-3.22;100.00
61014;BME280;46899;47.542;19.082;2022-12-18T00:33:18;101971.00;;;-3.31;100.00
61014;BME280;46899;47.542;19.082;2022-12-18T00:36:22;101967.69;;;-3.30;100.00
61014;BME280;46899;47.542;19.082;2022-12-18T00:39:26;101971.44;;;-3.22;100.00
61014;BME280;46899;47.542;19.082;2022-12-18T00:42:29;101970.69;;;-3.20;100.00
61014;BME280;46899;47.542;19.082;2022-12-18T00:45:49;101974.19;;;-3.18;100.00
61014;BME280;46899;47.542;19.082;2022-12-18T00:48:52;101977.41;;;-3.22;100.00
61014;BME280;46899;47.542;19.082;2022-12-18T00:51:54;101977.25;;;-3.25;100.00
61014;BME280;46899;47.542;19.082;2022-12-18T00:54:57;101975.38;;;-3.29;100.00
61014;BME280;46899;47.542;19.082;2022-12-18T00:58:07;101987.00;;;-3.34;100.00
61014;BME280;46899;47.542;19.082;2022-12-18T01:01:10;101988.44;;;-3.39;100.00
61014;BME280;46899;47.542;19.082;2022-12-18T01:04:13;101989.47;;;-3.35;100.00
61014;BME280;46899;47.542;19.082;2022-12-18T01:07:15;102007.50;;;-3.31;100.00
61014;BME280;46899;47.542;19.082;2022-12-18T01:10:19;102001.53;;;-3.31;100.00
61014;BME280;46899;47.542;19.082;2022-12-18T01:13:21;102006.50;;;-3.34;100.00
61014;BME280;46899;47.542;19.082;2022-12-18T01:16:28;102005.75;;;-3.32;100.00
61014;BME280;46899;47.542;19.082;2022-12-18T01:19:35;102001.31;;;-3.36;100.00
61014;BME280;46899;47.542;19.082;2022-12-18T01:22:47;102008.16;;;-3.35;100.00
61014;BME280;46899;47.542;19.082;2022-12-18T01:25:50;102017.63;;;-3.32;100.00
61014;BME280;46899;47.542;19.082;2022-12-18T01:28:54;102018.78;;;-3.26;100.00
61014;BME280;46899;47.542;19.082;2022-12-18T01:32:00;102013.37;;;-3.32;100.00
61014;BME280;46899;47.542;19.082;2022-12-18T01:35:25;102017.63;;;-3.32;100.00
61014;BME280;46899;47.542;19.082;2022-12-18T01:38:31;102015.59;;;-3.39;100.00
61014;BME280;46899;47.542;19.082;2022-12-18T01:41:36;102022.63;;;-3.34;100.00
61014;BME280;46899;47.542;19.082;2022-12-18T01:45:08;102023.06;;;-3.42;100.00
61014;BME280;46899;47.542;19.082;2022-12-18T01:48:28;102033.19;;;-3.44;100.00
61014;BME280;46899;47.542;19.082;2022-12-18T01:51:34;102036.66;;;-3.42;100.00
61014;BME280;46899;47.542;19.082;2022-12-18T01:54:42;102039.31;;;-3.39;100.00
61014;BME280;46899;47.542;19.082;2022-12-18T01:57:45;102036.28;;;-3.32;100.00
61014;BME280;46899;47.542;19.082;2022-12-18T02:00:50;102048.22;;;-3.31;100.00
61014;BME280;46899;47.542;19.082;2022-12-18T02:04:16;102041.53;;;-3.29;100.00
61014;BME280;46899;47.542;19.082;2022-12-18T02:07:30;102048.50;;;-3.25;100.00
61014;BME280;46899;47.542;19.082;2022-12-18T02:17:07;102068.44;;;-3.16;100.00
61014;BME280;46899;47.542;19.082;2022-12-18T02:20:37;102071.06;;;-3.32;100.00
61014;BME280;46899;47.542;19.082;2022-12-18T02:27:00;102075.09;;;-3.36;100.00
61014;BME280;46899;47.542;19.082;2022-12-18T02:30:05;102076.78;;;-3.36;100.00
61014;BME280;46899;47.542;19.082;2022-12-18T02:33:12;102082.00;;;-3.33;100.00
61014;BME280;46899;47.542;19.082;2022-12-18T02:36:17;102081.94;;;-3.35;100.00
61014;BME280;46899;47.542;19.082;2022-12-18T02:39:22;102085.00;;;-3.42;100.00
61014;BME280;46899;47.542;19.082;2022-12-18T02:42:27;102104.09;;;-3.50;100.00
61014;BME280;46899;47.542;19.082;2022-12-18T02:45:30;102093.19;;;-3.48;100.00
61014;BME280;46899;47.542;19.082;2022-12-18T02:48:34;102091.37;;;-3.50;100.00
61014;BME280;46899;47.542;19.082;2022-12-18T02:51:59;102094.13;;;-3.63;100.00
61014;BME280;46899;47.542;19.082;2022-12-18T03:02:04;102112.91;;;-3.60;100.00
61014;BME280;46899;47.542;19.082;2022-12-18T03:11:17;102126.62;;;-3.74;100.00
61014;BME280;46899;47.542;19.082;2022-12-18T03:14:40;102130.69;;;-3.77;100.00
61014;BME280;46899;47.542;19.082;2022-12-18T03:18:06;102123.19;;;-3.74;100.00
61014;BME280;46899;47.542;19.082;2022-12-18T03:21:07;102132.88;;;-3.67;100.00
61014;BME280;46899;47.542;19.082;2022-12-18T03:24:12;102132.88;;;-3.67;100.00
61014;BME280;46899;47.542;19.082;2022-12-18T03:27:17;102139.66;;;-3.68;100.00
61014;BME280;46899;47.542;19.082;2022-12-18T03:30:22;102151.87;;;-3.77;100.00
61014;BME280;46899;47.542;19.082;2022-12-18T03:33:58;102152.28;;;-3.85;100.00
61014;BME280;46899;47.542;19.082;2022-12-18T03:36:53;102157.84;;;-3.76;100.00
61014;BME280;46899;47.542;19.082;2022-12-18T03:39:57;102159.97;;;-3.84;100.00
61014;BME280;46899;47.542;19.082;2022-12-18T03:43:06;102164.22;;;-3.84;100.00
61014;BME280;46899;47.542;19.082;2022-12-18T03:46:13;102161.50;;;-3.71;100.00
61014;BME280;46899;47.542;19.082;2022-12-18T03:49:23;102167.72;;;-3.82;100.00
61014;BME280;46899;47.542;19.082;2022-12-18T03:55:32;102166.28;;;-3.93;100.00
61014;BME280;46899;47.542;19.082;2022-12-18T03:58:37;102168.09;;;-3.91;100.00
61014;BME280;46899;47.542;19.082;2022-12-18T04:01:48;102168.25;;;-3.88;100.00
61014;BME280;46899;47.542;19.082;2022-12-18T04:04:52;102173.66;;;-3.82;100.00
61014;BME280;46899;47.542;19.082;2022-12-18T04:07:56;102173.03;;;-3.94;100.00
61014;BME280;46899;47.542;19.082;2022-12-18T04:10:59;102184.28;;;-4.05;100.00
61014;BME280;46899;47.542;19.082;2022-12-18T04:14:02;102185.63;;;-3.95;100.00
61014;BME280;46899;47.542;19.082;2022-12-18T04:17:08;102190.59;;;-3.98;100.00
61014;BME280;46899;47.542;19.082;2022-12-18T04:20:11;102182.84;;;-4.00;100.00
61014;BME280;46899;47.542;19.082;2022-12-18T04:23:16;102188.03;;;-3.98;100.00
61014;BME280;46899;47.542;19.082;2022-12-18T04:26:18;102188.56;;;-4.04;100.00
61014;BME280;46899;47.542;19.082;2022-12-18T04:29:21;102187.81;;;-4.03;100.00
61014;BME280;46899;47.542;19.082;2022-12-18T04:32:24;102190.59;;;-3.98;100.00
61014;BME280;46899;47.542;19.082;2022-12-18T04:35:26;102190.47;;;-4.00;100.00
61014;BME280;46899;47.542;19.082;2022-12-18T04:38:29;102197.56;;;-3.94;100.00
61014;BME280;46899;47.542;19.082;2022-12-18T04:41:33;102203.34;;;-3.97;100.00
61014;BME280;46899;47.542;19.082;2022-12-18T04:44:36;102208.50;;;-3.95;100.00
61014;BME280;46899;47.542;19.082;2022-12-18T04:47:38;102211.16;;;-3.94;100.00
61014;BME280;46899;47.542;19.082;2022-12-18T04:50:41;102213.00;;;-3.91;100.00
61014;BME280;46899;47.542;19.082;2022-12-18T04:53:43;102225.81;;;-4.04;100.00
61014;BME280;46899;47.542;19.082;2022-12-18T04:56:46;102225.22;;;-4.00;100.00
61014;BME280;46899;47.542;19.082;2022-12-18T04:59:48;102225.81;;;-4.04;100.00
61014;BME280;46899;47.542;19.082;2022-12-18T05:02:50;102229.94;;;-4.06;100.00
61014;BME280;46899;47.542;19.082;2022-12-18T05:05:53;102230.22;;;-4.17;100.00
61014;BME280;46899;47.542;19.082;2022-12-18T05:08:56;102232.41;;;-4.08;100.00
61014;BME280;46899;47.542;19.082;2022-12-18T05:11:58;102236.91;;;-4.19;100.00
61014;BME280;46899;47.542;19.082;2022-12-18T05:15:01;102241.31;;;-4.31;100.00
61014;BME280;46899;47.542;19.082;2022-12-18T05:18:03;102252.88;;;-4.36;100.00
61014;BME280;46899;47.542;19.082;2022-12-18T05:21:06;102251.41;;;-4.32;100.00
61014;BME280;46899;47.542;19.082;2022-12-18T05:24:08;102249.56;;;-4.35;100.00
61014;BME280;46899;47.542;19.082;2022-12-18T05:27:11;102250.25;;;-4.23;100.00
61014;BME280;46899;47.542;19.082;2022-12-18T05:30:14;102259.97;;;-4.30;100.00
61014;BME280;46899;47.542;19.082;2022-12-18T05:33:17;102268.44;;;-4.46;100.00
61014;BME280;46899;47.542;19.082;2022-12-18T05:36:19;102269.44;;;-4.42;100.00
61014;BME280;46899;47.542;19.082;2022-12-18T05:39:22;102273.50;;;-4.46;100.00
61014;BME280;46899;47.542;19.082;2022-12-18T05:42:24;102267.97;;;-4.39;100.00
61014;BME280;46899;47.542;19.082;2022-12-18T05:45:27;102283.28;;;-4.37;100.00
61014;BME280;46899;47.542;19.082;2022-12-18T05:48:29;102284.25;;;-4.50;100.00
61014;BME280;46899;47.542;19.082;2022-12-18T05:51:32;102288.28;;;-4.39;100.00
61014;BME280;46899;47.542;19.082;2022-12-18T05:54:34;102285.06;;;-4.36;100.00
61014;BME280;46899;47.542;19.082;2022-12-18T05:57:36;102286.00;;;-4.34;100.00
61014;BME280;46899;47.542;19.082;2022-12-18T06:00:40;102295.91;;;-4.39;100.00
61014;BME280;46899;47.542;19.082;2022-12-18T06:03:43;102296.00;;;-4.52;100.00
61014;BME280;46899;47.542;19.082;2022-12-18T06:06:46;102293.53;;;-4.36;100.00
61014;BME280;46899;47.542;19.082;2022-12-18T06:09:49;102302.62;;;-4.25;100.00
61014;BME280;46899;47.542;19.082;2022-12-18T06:12:51;102307.97;;;-4.20;100.00
61014;BME280;46899;47.542;19.082;2022-12-18T06:15:54;102305.00;;;-4.28;100.00
61014;BME280;46899;47.542;19.082;2022-12-18T06:18:57;102304.03;;;-4.30;100.00
61014;BME280;46899;47.542;19.082;2022-12-18T06:22:01;102307.09;;;-4.35;100.00
61014;BME280;46899;47.542;19.082;2022-12-18T06:25:03;102309.56;;;-4.37;100.00
61014;BME280;46899;47.542;19.082;2022-12-18T06:28:06;102314.03;;;-4.47;100.00
61014;BME280;46899;47.542;19.082;2022-12-18T06:31:08;102317.72;;;-4.57;100.00
61014;BME280;46899;47.542;19.082;2022-12-18T06:34:11;102329.09;;;-4.65;100.00
61014;BME280;46899;47.542;19.082;2022-12-18T06:37:13;102329.81;;;-4.67;100.00
61014;BME280;46899;47.542;19.082;2022-12-18T06:40:16;102334.63;;;-4.72;100.00
61014;BME280;46899;47.542;19.082;2022-12-18T06:43:18;102342.84;;;-4.76;100.00
61014;BME280;46899;47.542;19.082;2022-12-18T06:46:21;102341.97;;;-4.76;100.00
61014;BME280;46899;47.542;19.082;2022-12-18T06:49:23;102348.91;;;-4.59;100.00
61014;BME280;46899;47.542;19.082;2022-12-18T06:52:32;102352.66;;;-4.53;100.00
61014;BME280;46899;47.542;19.082;2022-12-18T06:55:34;102353.81;;;-4.48;100.00
61014;BME280;46899;47.542;19.082;2022-12-18T06:58:40;102362.91;;;-4.37;100.00
61014;BME280;46899;47.542;19.082;2022-12-18T07:01:42;102373.06;;;-4.37;100.00
61014;BME280;46899;47.542;19.082;2022-12-18T07:04:45;102387.78;;;-4.46;100.00
61014;BME280;46899;47.542;19.082;2022-12-18T07:07:50;102388.38;;;-4.50;100.00
61014;BME280;46899;47.542;19.082;2022-12-18T07:10:53;102384.88;;;-4.52;100.00
61014;BME280;46899;47.542;19.082;2022-12-18T07:13:57;102387.59;;;-4.49;100.00
61014;BME280;46899;47.542;19.082;2022-12-18T07:17:00;102397.69;;;-4.50;100.00
61014;BME280;46899;47.542;19.082;2022-12-18T07:20:02;102400.38;;;-4.47;100.00
61014;BME280;46899;47.542;19.082;2022-12-18T07:23:05;102403.09;;;-4.44;100.00
61014;BME280;46899;47.542;19.082;2022-12-18T07:26:10;102408.72;;;-4.35;100.00
61014;BME280;46899;47.542;19.082;2022-12-18T07:29:13;102410.03;;;-4.27;100.00
61014;BME280;46899;47.542;19.082;2022-12-18T07:32:15;102419.84;;;-4.19;100.00
61014;BME280;46899;47.542;19.082;2022-12-18T07:35:18;102418.09;;;-4.05;100.00
61014;BME280;46899;47.542;19.082;2022-12-18T07:38:26;102425.00;;;-3.88;100.00
61014;BME280;46899;47.542;19.082;2022-12-18T07:41:29;102436.81;;;-3.74;100.00
61014;BME280;46899;47.542;19.082;2022-12-18T07:44:34;102433.66;;;-3.70;100.00
61014;BME280;46899;47.542;19.082;2022-12-18T07:47:36;102436.47;;;-3.65;100.00
61014;BME280;46899;47.542;19.082;2022-12-18T07:50:39;102441.16;;;-3.42;100.00
61014;BME280;46899;47.542;19.082;2022-12-18T07:53:42;102454.81;;;-3.25;100.00
61014;BME280;46899;47.542;19.082;2022-12-18T07:56:45;102448.84;;;-3.10;100.00
61014;BME280;46899;47.542;19.082;2022-12-18T07:59:47;102453.47;;;-3.03;100.00
61014;BME280;46899;47.542;19.082;2022-12-18T08:02:49;102468.28;;;-2.80;100.00
61014;BME280;46899;47.542;19.082;2022-12-18T08:05:52;102472.19;;;-2.54;100.00
61014;BME280;46899;47.542;19.082;2022-12-18T08:08:55;102470.31;;;-2.58;100.00
61014;BME280;46899;47.542;19.082;2022-12-18T08:11:58;102465.75;;;-2.63;100.00
61014;BME280;46899;47.542;19.082;2022-12-18T08:15:00;102480.00;;;-2.67;100.00
61014;BME280;46899;47.542;19.082;2022-12-18T08:18:03;102483.09;;;-2.56;100.00
61014;BME280;46899;47.542;19.082;2022-12-18T08:21:16;102489.41;;;-2.50;100.00
61014;BME280;46899;47.542;19.082;2022-12-18T08:24:19;102485.34;;;-2.46;100.00
61014;BME280;46899;47.542;19.082;2022-12-18T08:27:21;102484.69;;;-2.42;100.00
61014;BME280;46899;47.542;19.082;2022-12-18T08:30:31;102492.09;;;-2.31;100.00
61014;BME280;46899;47.542;19.082;2022-12-18T08:33:35;102494.63;;;-2.31;100.00
61014;BME280;46899;47.542;19.082;2022-12-18T08:36:38;102498.63;;;-2.20;100.00
61014;BME280;46899;47.542;19.082;2022-12-18T08:39:40;102500.09;;;-2.07;100.00
61014;BME280;46899;47.542;19.082;2022-12-18T08:42:43;102498.84;;;-1.99;100.00
61014;BME280;46899;47.542;19.082;2022-12-18T08:46:04;102492.53;;;-1.89;100.00
61014;BME280;46899;47.542;19.082;2022-12-18T08:49:07;102497.84;;;-1.85;100.00
61014;BME280;46899;47.542;19.082;2022-12-18T08:52:10;102496.06;;;-1.70;100.00
61014;BME280;46899;47.542;19.082;2022-12-18T08:55:13;102501.59;;;-1.61;100.00
61014;BME280;46899;47.542;19.082;2022-12-18T08:58:15;102505.03;;;-1.60;99.90
61014;BME280;46899;47.542;19.082;2022-12-18T09:01:18;102513.41;;;-1.45;99.53
61014;BME280;46899;47.542;19.082;2022-12-18T09:04:21;102514.28;;;-1.45;100.00
61014;BME280;46899;47.542;19.082;2022-12-18T09:07:23;102530.31;;;-1.29;100.00
61014;BME280;46899;47.542;19.082;2022-12-18T09:10:26;102529.25;;;-1.34;97.86
61014;BME280;46899;47.542;19.082;2022-12-18T09:13:28;102534.87;;;-1.24;99.08
61014;BME280;46899;47.542;19.082;2022-12-18T09:16:31;102531.78;;;-1.17;98.51
61014;BME280;46899;47.542;19.082;2022-12-18T09:19:34;102539.78;;;-1.11;99.16
61014;BME280;46899;47.542;19.082;2022-12-18T09:22:37;102536.34;;;-1.11;98.67
61014;BME280;46899;47.542;19.082;2022-12-18T09:25:39;102530.31;;;-0.94;97.77
61014;BME280;46899;47.542;19.082;2022-12-18T09:28:43;102530.91;;;-1.00;95.41
61014;BME280;46899;47.542;19.082;2022-12-18T09:31:46;102534.25;;;-0.83;94.65
61014;BME280;46899;47.542;19.082;2022-12-18T09:34:48;102532.63;;;-0.81;95.16
61014;BME280;46899;47.542;19.082;2022-12-18T09:37:51;102528.53;;;-0.78;96.03
61014;BME280;46899;47.542;19.082;2022-12-18T09:40:56;102527.00;;;-0.74;94.45
61014;BME280;46899;47.542;19.082;2022-12-18T09:44:02;102522.03;;;-0.71;95.10
61014;BME280;46899;47.542;19.082;2022-12-18T09:47:07;102516.09;;;-0.70;94.15
61014;BME280;46899;47.542;19.082;2022-12-18T09:53:26;102529.19;;;-0.45;91.84
61014;BME280;46899;47.542;19.082;2022-12-18T09:56:33;102521.00;;;-0.38;91.56
61014;BME280;46899;47.542;19.082;2022-12-18T09:59:37;102515.41;;;-0.29;88.95
61014;BME280;46899;47.542;19.082;2022-12-18T10:02:42;102520.16;;;-0.18;89.75
61014;BME280;46899;47.542;19.082;2022-12-18T10:15:16;102518.19;;;-0.04;89.54
61014;BME280;46899;47.542;19.082;2022-12-18T10:21:44;102519.78;;;0.13;88.56
61014;BME280;46899;47.542;19.082;2022-12-18T10:25:05;102519.22;;;0.20;86.54
61014;BME280;46899;47.542;19.082;2022-12-18T10:28:15;102521.97;;;0.25;87.32
61014;BME280;46899;47.542;19.082;2022-12-18T10:31:20;102518.16;;;0.36;85.36
61014;BME280;46899;47.542;19.082;2022-12-18T10:34:25;102514.69;;;0.34;85.16
61014;BME280;46899;47.542;19.082;2022-12-18T10:37:28;102501.25;;;0.39;85.13
61014;BME280;46899;47.542;19.082;2022-12-18T10:40:32;102510.09;;;0.47;83.86
61014;BME280;46899;47.542;19.082;2022-12-18T10:43:36;102503.84;;;0.61;83.58
61014;BME280;46899;47.542;19.082;2022-12-18T10:46:38;102505.84;;;0.68;82.84
61014;BME280;46899;47.542;19.082;2022-12-18T10:49:47;102518.34;;;0.82;82.53
61014;BME280;46899;47.542;19.082;2022-12-18T10:52:57;102509.78;;;0.81;81.08
61014;BME280;46899;47.542;19.082;2022-12-18T10:56:00;102504.41;;;0.97;80.62
61014;BME280;46899;47.542;19.082;2022-12-18T10:59:04;102505.44;;;1.01;79.99
61014;BME280;46899;47.542;19.082;2022-12-18T11:02:07;102496.16;;;1.04;80.60
61014;BME280;46899;47.542;19.082;2022-12-18T11:05:30;102506.75;;;1.13;79.60
61014;BME280;46899;47.542;19.082;2022-12-18T11:08:34;102500.09;;;1.18;80.83
61014;BME280;46899;47.542;19.082;2022-12-18T11:11:36;102495.06;;;1.20;80.01
61014;BME280;46899;47.542;19.082;2022-12-18T11:14:43;102499.47;;;1.24;79.41
61014;BME280;46899;47.542;19.082;2022-12-18T11:17:49;102487.91;;;1.35;76.91
61014;BME280;46899;47.542;19.082;2022-12-18T11:20:54;102488.00;;;1.36;77.60
61014;BME280;46899;47.542;19.082;2022-12-18T11:23:59;102493.00;;;1.33;77.18
61014;BME280;46899;47.542;19.082;2022-12-18T11:27:03;102494.03;;;1.38;75.04
61014;BME280;46899;47.542;19.082;2022-12-18T11:30:13;102492.41;;;1.41;74.94
61014;BME280;46899;47.542;19.082;2022-12-18T11:33:25;102491.47;;;1.38;75.21
61014;BME280;46899;47.542;19.082;2022-12-18T11:36:28;102495.19;;;1.47;75.15
61014;BME280;46899;47.542;19.082;2022-12-18T11:39:44;102488.41;;;1.49;75.78
61014;BME280;46899;47.542;19.082;2022-12-18T11:42:50;102482.47;;;1.50;74.59
61014;BME280;46899;47.542;19.082;2022-12-18T11:45:59;102479.31;;;1.57;74.30
61014;BME280;46899;47.542;19.082;2022-12-18T11:52:09;102488.75;;;1.58;72.44
61014;BME280;46899;47.542;19.082;2022-12-18T11:55:18;102486.09;;;1.55;73.15
61014;BME280;46899;47.542;19.082;2022-12-18T12:01:52;102475.50;;;1.69;72.35
61014;BME280;46899;47.542;19.082;2022-12-18T12:18:11;102461.63;;;1.64;71.58
61014;BME280;46899;47.542;19.082;2022-12-18T12:34:02;102461.94;;;1.73;72.76
61014;BME280;46899;47.542;19.082;2022-12-18T12:40:15;102465.31;;;1.72;73.77
61014;BME280;46899;47.542;19.082;2022-12-18T12:43:45;102463.59;;;1.71;74.53
61014;BME280;46899;47.542;19.082;2022-12-18T12:46:52;102473.16;;;1.77;74.55
61014;BME280;46899;47.542;19.082;2022-12-18T12:49:58;102479.09;;;1.74;74.08
61014;BME280;46899;47.542;19.082;2022-12-18T12:53:05;102485.03;;;1.73;73.99
61014;BME280;46899;47.542;19.082;2022-12-18T12:56:10;102487.00;;;1.80;73.13
61014;BME280;46899;47.542;19.082;2022-12-18T12:59:26;102499.19;;;1.86;73.07
61014;BME280;46899;47.542;19.082;2022-12-18T13:02:35;102499.19;;;1.86;73.47
61014;BME280;46899;47.542;19.082;2022-12-18T13:05:41;102494.50;;;1.74;74.72
61014;BME280;46899;47.542;19.082;2022-12-18T13:08:52;102496.97;;;1.73;74.73
61014;BME280;46899;47.542;19.082;2022-12-18T13:11:57;102505.56;;;1.73;73.47
61014;BME280;46899;47.542;19.082;2022-12-18T13:18:25;102498.78;;;1.52;77.11
61014;BME280;46899;47.542;19.082;2022-12-18T13:21:29;102508.44;;;1.59;74.83
61014;BME280;46899;47.542;19.082;2022-12-18T13:24:33;102504.19;;;1.59;73.95
61014;BME280;46899;47.542;19.082;2022-12-18T13:30:55;102505.84;;;1.57;74.23
61014;BME280;46899;47.542;19.082;2022-12-18T13:43:50;102522.25;;;1.38;76.40
61014;BME280;46899;47.542;19.082;2022-12-18T13:46:56;102518.31;;;1.24;77.17
61014;BME280;46899;47.542;19.082;2022-12-18T13:49:59;102519.69;;;1.16;77.54
61014;BME280;46899;47.542;19.082;2022-12-18T13:53:03;102517.66;;;1.08;78.28
61014;BME280;46899;47.542;19.082;2022-12-18T13:56:07;102528.31;;;0.96;80.52
61014;BME280;46899;47.542;19.082;2022-12-18T14:02:16;102531.19;;;0.83;81.58
61014;BME280;46899;47.542;19.082;2022-12-18T14:05:22;102532.22;;;0.87;81.72
61014;BME280;46899;47.542;19.082;2022-12-18T14:08:25;102528.31;;;0.76;83.10
61014;BME280;46899;47.542;19.082;2022-12-18T14:11:30;102534.41;;;0.57;84.14
61014;BME280;46899;47.542;19.082;2022-12-18T14:14:33;102534.16;;;0.51;85.99
61014;BME280;46899;47.542;19.082;2022-12-18T14:17:35;102538.72;;;0.37;85.42
61014;BME280;46899;47.542;19.082;2022-12-18T14:20:39;102540.34;;;0.35;85.52
61014;BME280;46899;47.542;19.082;2022-12-18T14:23:47;102544.97;;;0.23;86.09
61014;BME280;46899;47.542;19.082;2022-12-18T14:26:50;102534.13;;;0.10;87.96
61014;BME280;46899;47.542;19.082;2022-12-18T14:29:52;102534.13;;;0.10;87.62
61014;BME280;46899;47.542;19.082;2022-12-18T14:33:05;102539.78;;;0.03;88.46
61014;BME280;46899;47.542;19.082;2022-12-18T14:36:13;102542.69;;;-0.09;89.10
61014;BME280;46899;47.542;19.082;2022-12-18T14:39:17;102542.09;;;-0.23;92.03
61014;BME280;46899;47.542;19.082;2022-12-18T14:42:20;102550.06;;;-0.36;91.56
61014;BME280;46899;47.542;19.082;2022-12-18T14:45:42;102553.00;;;-0.46;91.95
61014;BME280;46899;47.542;19.082;2022-12-18T14:48:46;102562.72;;;-0.56;95.78
61014;BME280;46899;47.542;19.082;2022-12-18T14:51:50;102568.84;;;-0.72;96.35
61014;BME280;46899;47.542;19.082;2022-12-18T14:54:54;102571.63;;;-0.85;99.56
61014;BME280;46899;47.542;19.082;2022-12-18T14:57:56;102586.22;;;-1.00;98.55
61014;BME280;46899;47.542;19.082;2022-12-18T15:00:59;102579.88;;;-1.08;98.91
61014;BME280;46899;47.542;19.082;2022-12-18T15:04:03;102584.91;;;-1.10;97.90
61014;BME280;46899;47.542;19.082;2022-12-18T15:07:38;102587.03;;;-1.19;99.79
61014;BME280;46899;47.542;19.082;2022-12-18T15:10:31;102585.87;;;-1.25;99.22
61014;BME280;46899;47.542;19.082;2022-12-18T15:13:34;102597.53;;;-1.30;100.00
61014;BME280;46899;47.542;19.082;2022-12-18T15:16:37;102597.22;;;-1.37;100.00
61014;BME280;46899;47.542;19.082;2022-12-18T15:19:46;102600.13;;;-1.47;100.00
61014;BME280;46899;47.542;19.082;2022-12-18T15:22:48;102603.31;;;-1.51;100.00
61014;BME280;46899;47.542;19.082;2022-12-18T15:25:58;102604.28;;;-1.65;100.00
61014;BME280;46899;47.542;19.082;2022-12-18T15:29:02;102614.16;;;-1.72;100.00
61014;BME280;46899;47.542;19.082;2022-12-18T15:32:10;102609.59;;;-1.78;100.00
61014;BME280;46899;47.542;19.082;2022-12-18T15:35:23;102616.09;;;-1.67;100.00
61014;BME280;46899;47.542;19.082;2022-12-18T15:38:26;102624.91;;;-1.78;100.00
61014;BME280;46899;47.542;19.082;2022-12-18T15:41:30;102619.16;;;-1.90;100.00
61014;BME280;46899;47.542;19.082;2022-12-18T15:44:34;102629.78;;;-1.98;100.00
61014;BME280;46899;47.542;19.082;2022-12-18T15:47:36;102636.72;;;-2.12;100.00
61014;BME280;46899;47.542;19.082;2022-12-18T15:50:39;102640.34;;;-2.23;100.00
61014;BME280;46899;47.542;19.082;2022-12-18T15:53:41;102645.44;;;-2.23;100.00
61014;BME280;46899;47.542;19.082;2022-12-18T15:56:45;102660.31;;;-2.31;100.00
61014;BME280;46899;47.542;19.082;2022-12-18T16:00:11;102653.94;;;-2.39;100.00
61014;BME280;46899;47.542;19.082;2022-12-18T16:03:13;102652.84;;;-2.28;100.00
61014;BME280;46899;47.542;19.082;2022-12-18T16:06:16;102666.87;;;-2.36;100.00
61014;BME280;46899;47.542;19.082;2022-12-18T16:09:19;102673.75;;;-2.49;100.00
61014;BME280;46899;47.542;19.082;2022-12-18T16:12:27;102664.63;;;-2.60;100.00
61014;BME280;46899;47.542;19.082;2022-12-18T16:15:29;102668.13;;;-2.58;100.00
61014;BME280;46899;47.542;19.082;2022-12-18T16:18:32;102666.69;;;-2.69;100.00
61014;BME280;46899;47.542;19.082;2022-12-18T16:21:35;102670.31;;;-2.81;100.00
61014;BME280;46899;47.542;19.082;2022-12-18T16:24:37;102675.16;;;-2.85;100.00
61014;BME280;46899;47.542;19.082;2022-12-18T16:27:40;102677.69;;;-2.85;100.00
61014;BME280;46899;47.542;19.082;2022-12-18T16:30:43;102684.78;;;-2.94;100.00
61014;BME280;46899;47.542;19.082;2022-12-18T16:33:47;102688.59;;;-3.02;100.00
61014;BME280;46899;47.542;19.082;2022-12-18T16:36:49;102689.81;;;-3.10;100.00
61014;BME280;46899;47.542;19.082;2022-12-18T16:39:52;102691.19;;;-3.15;100.00
61014;BME280;46899;47.542;19.082;2022-12-18T16:42:54;102687.53;;;-3.20;100.00
61014;BME280;46899;47.542;19.082;2022-12-18T16:45:58;102681.37;;;-3.24;100.00
61014;BME280;46899;47.542;19.082;2022-12-18T16:49:00;102699.12;;;-3.25;100.00
61014;BME280;46899;47.542;19.082;2022-12-18T16:52:04;102706.62;;;-3.27;100.00
61014;BME280;46899;47.542;19.082;2022-12-18T16:55:06;102706.47;;;-3.30;100.00
61014;BME280;46899;47.542;19.082;2022-12-18T16:58:09;102707.06;;;-3.34;100.00
61014;BME280;46899;47.542;19.082;2022-12-18T17:01:12;102705.06;;;-3.39;100.00
61014;BME280;46899;47.542;19.082;2022-12-18T17:04:14;102699.88;;;-3.41;100.00
61014;BME280;46899;47.542;19.082;2022-12-18T17:07:18;102701.63;;;-3.40;100.00
61014;BME280;46899;47.542;19.082;2022-12-18T17:10:20;102692.06;;;-3.44;100.00
61014;BME280;46899;47.542;19.082;2022-12-18T17:13:25;102687.75;;;-3.45;100.00
61014;BME280;46899;47.542;19.082;2022-12-18T17:16:27;102690.03;;;-3.50;100.00
61014;BME280;46899;47.542;19.082;2022-12-18T17:19:30;102695.63;;;-3.55;100.00
61014;BME280;46899;47.542;19.082;2022-12-18T17:22:32;102691.88;;;-3.47;100.00
61014;BME280;46899;47.542;19.082;2022-12-18T17:25:38;102684.00;;;-3.37;100.00
61014;BME280;46899;47.542;19.082;2022-12-18T17:28:40;102691.97;;;-3.46;100.00